Time;durP1;ratioP1;P1;durP2;ratioP2;P2;SDS_P1;SDS_P2;PMS_P1;PMS_P2;Temp;Humidity;BMP_temperature;BMP_pressure;BME280_temperature;BME280_humidity;BME280_pressure;Samples;Min_cycle;Max_cycle;Signal;HPM_P1;HPM_P2
2022/05/19 00:01:39;;;;;;;5.97;4.00;;;;;;;;;;10418612;28;20975;-84
2022/05/19 00:06:41;;;;;;;6.88;3.65;;;;;;;;;;10418694;28;20396;-85
2022/05/19 00:11:45;;;;;;;5.50;3.47;;;;;;;;;;10421835;28;20407;-83
2022/05/19 00:16:48;;;;;;;6.03;3.80;;;;;;;;;;10418732;28;20776;-84
2022/05/19 00:21:50;;;;;;;6.68;4.10;;;;;;;;;;10416818;28;20409;-84
2022/05/19 00:26:53;;;;;;;5.15;3.50;;;;;;;;;;10424761;28;20402;-85
2022/05/19 00:31:55;;;;;;;5.65;3.38;;;;;;;;;;10418790;28;20879;-84
2022/05/19 00:36:58;;;;;;;6.37;3.10;;;;;;;;;;10418351;28;20427;-84
2022/05/19 00:47:23;;;;;;;4.63;2.92;;;;;;;;;;10418764;28;20405;-84
2022/05/19 00:52:29;;;;;;;5.43;3.00;;;;;;;;;;10421673;28;20407;-84
2022/05/19 00:57:36;;;;;;;2.77;2.33;;;;;;;;;;10422609;28;20817;-83
2022/05/19 01:02:43;;;;;;;3.80;2.40;;;;;;;;;;10419036;28;20490;-84
2022/05/19 01:07:50;;;;;;;5.47;2.22;;;;;;;;;;10417807;28;20399;-84
2022/05/19 01:12:54;;;;;;;5.28;2.20;;;;;;;;;;10419976;28;20907;-83
2022/05/19 01:17:56;;;;;;;4.55;1.95;;;;;;;;;;10417312;28;20435;-85
2022/05/19 01:23:05;;;;;;;2.83;2.13;;;;;;;;;;10417481;28;20397;-83
2022/05/19 01:28:08;;;;;;;4.05;2.30;;;;;;;;;;10428641;28;20412;-85
2022/05/19 01:33:10;;;;;;;3.80;2.10;;;;;;;;;;10425686;28;20880;-84
2022/05/19 01:38:17;;;;;;;2.87;2.10;;;;;;;;;;10427905;28;20419;-84
2022/05/19 01:43:29;;;;;;;3.60;2.13;;;;;;;;;;10424821;28;20400;-83
2022/05/19 01:48:39;;;;;;;2.13;1.70;;;;;;;;;;10424781;28;20482;-83
2022/05/19 01:53:49;;;;;;;2.30;1.97;;;;;;;;;;10429209;28;20419;-85
2022/05/19 01:59:03;;;;;;;4.57;2.05;;;;;;;;;;10422745;28;20818;-84
2022/05/19 02:04:08;;;;;;;2.85;1.98;;;;;;;;;;10440135;28;20403;-85
2022/05/19 02:09:17;;;;;;;2.45;1.85;;;;;;;;;;10443852;28;20934;-85
2022/05/19 02:14:23;;;;;;;3.13;2.00;;;;;;;;;;10444562;28;20397;-84
2022/05/19 02:19:28;;;;;;;3.87;1.93;;;;;;;;;;10443957;28;20455;-85
2022/05/19 02:24:35;;;;;;;2.33;1.67;;;;;;;;;;10444376;28;20745;-85
2022/05/19 02:29:38;;;;;;;4.07;1.93;;;;;;;;;;10444083;28;20408;-85
2022/05/19 02:34:40;;;;;;;2.83;2.13;;;;;;;;;;10432591;28;20426;-83
2022/05/19 02:39:41;;;;;;;5.57;2.20;;;;;;;;;;10424697;28;20428;-84
2022/05/19 02:44:45;;;;;;;3.13;1.90;;;;;;;;;;10444052;28;20901;-84
2022/05/19 02:49:46;;;;;;;3.80;1.90;;;;;;;;;;10432859;28;20401;-82
2022/05/19 02:54:48;;;;;;;3.38;1.90;;;;;;;;;;10433919;28;20410;-85
2022/05/19 02:59:52;;;;;;;2.95;1.90;;;;;;;;;;10443469;28;20423;-83
2022/05/19 03:04:53;;;;;;;5.47;2.10;;;;;;;;;;10443836;28;20403;-84
2022/05/19 03:09:55;;;;;;;5.22;2.20;;;;;;;;;;10442826;28;20404;-83
2022/05/19 03:14:58;;;;;;;2.92;2.10;;;;;;;;;;10443263;28;20411;-84
2022/05/19 03:20:00;;;;;;;2.77;1.90;;;;;;;;;;10443159;28;20426;-82
2022/05/19 03:25:03;;;;;;;3.03;2.00;;;;;;;;;;10441804;28;20399;-83
2022/05/19 03:30:08;;;;;;;3.07;2.00;;;;;;;;;;10442900;28;20406;-84
2022/05/19 03:35:11;;;;;;;4.50;2.20;;;;;;;;;;10442416;28;20487;-83
2022/05/19 03:40:16;;;;;;;3.45;1.95;;;;;;;;;;10441183;28;20912;-84
2022/05/19 03:45:19;;;;;;;2.45;1.90;;;;;;;;;;10441826;28;20406;-83
2022/05/19 03:50:21;;;;;;;3.65;2.00;;;;;;;;;;10441642;28;20395;-83
2022/05/19 03:55:24;;;;;;;3.72;2.05;;;;;;;;;;10441003;28;20501;-83
2022/05/19 04:00:27;;;;;;;2.47;1.90;;;;;;;;;;10441332;28;20785;-82
2022/05/19 04:05:29;;;;;;;4.53;2.03;;;;;;;;;;10423245;28;21674;-84
2022/05/19 04:10:32;;;;;;;3.63;2.30;;;;;;;;;;10421278;28;20554;-83
2022/05/19 04:15:35;;;;;;;5.50;2.33;;;;;;;;;;10419039;28;20397;-84
2022/05/19 04:20:37;;;;;;;3.33;2.23;;;;;;;;;;10418071;28;20515;-84
2022/05/19 04:25:40;;;;;;;4.63;2.13;;;;;;;;;;10425034;28;20794;-84
2022/05/19 04:30:43;;;;;;;3.80;2.30;;;;;;;;;;10425809;28;20494;-84
2022/05/19 04:35:45;;;;;;;3.35;2.30;;;;;;;;;;10417998;28;20675;-85
2022/05/19 04:40:50;;;;;;;4.32;2.20;;;;;;;;;;10419921;28;20421;-83
2022/05/19 04:45:54;;;;;;;3.17;2.10;;;;;;;;;;10418385;28;20492;-83
2022/05/19 04:50:57;;;;;;;4.03;2.40;;;;;;;;;;10420071;28;20407;-85
2022/05/19 04:55:59;;;;;;;4.25;2.28;;;;;;;;;;10424946;28;20411;-83
2022/05/19 05:01:05;;;;;;;4.40;2.25;;;;;;;;;;10422870;28;20421;-83
2022/05/19 05:06:07;;;;;;;4.72;3.08;;;;;;;;;;10427342;28;20400;-84
2022/05/19 05:11:09;;;;;;;4.00;2.55;;;;;;;;;;10435851;28;20880;-85
2022/05/19 05:16:15;;;;;;;5.20;2.67;;;;;;;;;;10442338;28;20419;-84
2022/05/19 05:21:17;;;;;;;3.53;2.65;;;;;;;;;;10437985;28;20502;-84
2022/05/19 05:26:19;;;;;;;4.45;2.38;;;;;;;;;;10438258;28;20521;-83
2022/05/19 05:31:22;;;;;;;5.18;2.60;;;;;;;;;;10442450;28;20406;-83
2022/05/19 05:36:24;;;;;;;3.70;2.50;;;;;;;;;;10437686;28;20441;-83
2022/05/19 05:41:25;;;;;;;3.53;2.80;;;;;;;;;;10427850;28;20496;-83
2022/05/19 05:46:29;;;;;;;3.73;2.57;;;;;;;;;;10438765;28;20410;-83
2022/05/19 05:51:31;;;;;;;5.45;2.38;;;;;;;;;;10439979;28;20945;-82
2022/05/19 05:56:32;;;;;;;4.30;2.70;;;;;;;;;;10430853;28;20416;-81
2022/05/19 06:01:36;;;;;;;5.07;2.70;;;;;;;;;;10422476;28;20423;-82
2022/05/19 06:06:37;;;;;;;4.63;2.67;;;;;;;;;;10422919;28;20408;-80
2022/05/19 06:11:39;;;;;;;5.65;2.50;;;;;;;;;;10425413;28;20700;-81
2022/05/19 06:16:42;;;;;;;5.40;2.87;;;;;;;;;;10420478;28;20415;-81
2022/05/19 06:21:44;;;;;;;5.03;2.80;;;;;;;;;;10421224;28;20487;-82
2022/05/19 06:26:46;;;;;;;2.90;2.20;;;;;;;;;;10425484;28;20399;-82
2022/05/19 06:31:49;;;;;;;5.43;2.20;;;;;;;;;;10423221;28;20407;-81
2022/05/19 06:36:51;;;;;;;4.47;2.30;;;;;;;;;;10422827;28;20998;-83
2022/05/19 06:42:02;;;;;;;6.10;2.10;;;;;;;;;;10427186;28;20399;-82
2022/05/19 06:47:13;;;;;;;5.60;2.30;;;;;;;;;;10422837;28;20406;-82
2022/05/19 06:52:18;;;;;;;9.90;2.70;;;;;;;;;;10422092;28;20442;-82
2022/05/19 06:57:20;;;;;;;4.03;1.92;;;;;;;;;;10423665;28;20893;-82
2022/05/19 07:02:25;;;;;;;3.55;1.90;;;;;;;;;;10422373;28;20407;-79
2022/05/19 07:07:27;;;;;;;3.65;2.10;;;;;;;;;;10423424;28;20403;-81
2022/05/19 07:12:29;;;;;;;3.70;2.00;;;;;;;;;;10425674;28;20440;-81
2022/05/19 07:17:32;;;;;;;3.38;1.80;;;;;;;;;;10421251;28;20931;-81
2022/05/19 07:22:35;;;;;;;3.40;1.92;;;;;;;;;;10420862;28;20437;-81
2022/05/19 07:27:37;;;;;;;2.75;2.00;;;;;;;;;;10421061;28;20432;-81
2022/05/19 07:32:41;;;;;;;2.80;1.88;;;;;;;;;;10420987;28;20676;-81
2022/05/19 07:37:43;;;;;;;4.10;2.05;;;;;;;;;;10423238;28;20420;-81
2022/05/19 07:42:45;;;;;;;3.65;2.00;;;;;;;;;;10425267;28;20509;-81
2022/05/19 07:47:48;;;;;;;2.60;1.90;;;;;;;;;;10416479;28;20400;-80
2022/05/19 07:52:50;;;;;;;2.42;1.70;;;;;;;;;;10419608;28;20885;-81
2022/05/19 07:57:51;;;;;;;4.17;2.10;;;;;;;;;;10422908;28;20498;-81
2022/05/19 08:02:55;;;;;;;4.10;2.03;;;;;;;;;;10419423;28;20408;-82
2022/05/19 08:07:56;;;;;;;4.38;2.10;;;;;;;;;;10425047;28;20832;-81
2022/05/19 08:18:05;;;;;;;2.65;1.92;;;;;;;;;;10417649;28;20476;-80
2022/05/19 08:23:08;;;;;;;4.10;1.92;;;;;;;;;;10419935;28;20882;-81
2022/05/19 08:28:14;;;;;;;5.57;1.90;;;;;;;;;;10423241;28;20392;-81
2022/05/19 08:33:18;;;;;;;6.43;2.05;;;;;;;;;;10418714;28;20878;-80
2022/05/19 08:38:21;;;;;;;3.10;1.88;;;;;;;;;;10428785;28;20426;-80
2022/05/19 08:43:27;;;;;;;4.97;1.93;;;;;;;;;;10423805;28;20404;-80
2022/05/19 08:48:30;;;;;;;4.25;1.90;;;;;;;;;;10416077;28;20677;-82
2022/05/19 08:53:34;;;;;;;4.40;1.90;;;;;;;;;;10426410;28;20833;-80
2022/05/19 08:58:49;;;;;;;2.83;2.00;;;;;;;;;;10417873;28;20996;-80
2022/05/19 09:04:06;;;;;;;2.50;1.90;;;;;;;;;;10418213;28;20431;-81
2022/05/19 09:09:22;;;;;;;3.28;1.98;;;;;;;;;;10426059;28;20411;-80
2022/05/19 09:14:26;;;;;;;3.58;1.98;;;;;;;;;;10428141;28;20486;-81
2022/05/19 09:19:34;;;;;;;2.77;1.80;;;;;;;;;;10456529;28;20416;-81
2022/05/19 09:24:37;;;;;;;3.55;2.10;;;;;;;;;;10466436;28;20578;-80
2022/05/19 09:29:42;;;;;;;3.60;1.95;;;;;;;;;;10458660;28;20433;-80
2022/05/19 09:34:47;;;;;;;5.03;2.38;;;;;;;;;;10454561;28;20420;-82
2022/05/19 09:39:52;;;;;;;5.55;2.58;;;;;;;;;;10470380;28;20422;-82
2022/05/19 09:44:57;;;;;;;5.03;2.00;;;;;;;;;;10459016;28;20444;-81
2022/05/19 09:50:08;;;;;;;3.13;2.50;;;;;;;;;;10465938;28;20692;-81
2022/05/19 09:55:12;;;;;;;3.40;1.90;;;;;;;;;;10468361;28;20408;-81
2022/05/19 10:00:25;;;;;;;4.63;2.25;;;;;;;;;;10465368;28;20420;-81
2022/05/19 10:05:38;;;;;;;4.45;2.22;;;;;;;;;;10468156;28;20408;-81
2022/05/19 10:10:47;;;;;;;5.97;2.57;;;;;;;;;;10475015;28;20768;-82
2022/05/19 10:15:56;;;;;;;6.70;2.63;;;;;;;;;;10441820;28;20895;-83
2022/05/19 10:21:12;;;;;;;4.25;2.30;;;;;;;;;;10423768;28;20499;-83
2022/05/19 10:26:30;;;;;;;5.57;2.15;;;;;;;;;;10433666;28;20408;-83
2022/05/19 10:31:42;;;;;;;4.10;2.28;;;;;;;;;;10423251;28;20764;-82
2022/05/19 10:36:50;;;;;;;5.93;2.50;;;;;;;;;;10423905;28;20410;-82
2022/05/19 10:42:01;;;;;;;2.78;2.33;;;;;;;;;;10428994;28;20433;-83
2022/05/19 10:47:15;;;;;;;3.73;2.33;;;;;;;;;;10422025;28;20953;-83
2022/05/19 10:52:28;;;;;;;3.60;2.10;;;;;;;;;;10421567;28;20791;-82
2022/05/19 10:57:42;;;;;;;4.70;2.70;;;;;;;;;;10412848;28;20486;-83
2022/05/19 11:03:20;;;;;;;3.60;2.47;;;;;;;;;;10411487;28;20503;-82
2022/05/19 11:08:37;;;;;;;3.50;2.53;;;;;;;;;;10420455;28;20443;-83
2022/05/19 11:13:49;;;;;;;4.65;2.85;;;;;;;;;;10419758;28;20510;-83
2022/05/19 11:18:56;;;;;;;5.13;2.50;;;;;;;;;;10419876;28;20425;-82
2022/05/19 11:24:07;;;;;;;4.03;2.65;;;;;;;;;;10422586;28;20409;-83
2022/05/19 11:29:18;;;;;;;4.60;2.92;;;;;;;;;;10418495;28;20408;-82
2022/05/19 11:34:25;;;;;;;3.80;2.50;;;;;;;;;;10415378;28;20743;-83
2022/05/19 11:39:34;;;;;;;4.03;2.50;;;;;;;;;;10418220;28;20469;-83
2022/05/19 11:44:38;;;;;;;4.45;2.55;;;;;;;;;;10426162;28;20775;-83
2022/05/19 11:55:14;;;;;;;4.70;2.88;;;;;;;;;;10424549;28;20749;-82
2022/05/19 12:00:21;;;;;;;4.80;2.53;;;;;;;;;;10424158;28;20423;-83
2022/05/19 12:05:31;;;;;;;7.10;2.88;;;;;;;;;;10411786;28;20411;-82
2022/05/19 12:10:37;;;;;;;3.15;2.65;;;;;;;;;;10404405;28;20413;-83
2022/05/19 12:15:50;;;;;;;6.00;2.70;;;;;;;;;;10433003;28;20826;-84
2022/05/19 12:21:15;;;;;;;5.45;2.47;;;;;;;;;;10445439;28;20509;-84
2022/05/19 12:26:24;;;;;;;3.15;2.30;;;;;;;;;;10449042;28;20451;-83
2022/05/19 12:36:55;;;;;;;3.22;2.45;;;;;;;;;;10455527;28;20889;-84
2022/05/19 12:42:15;;;;;;;5.00;2.30;;;;;;;;;;10460454;28;20786;-84
2022/05/19 12:47:23;;;;;;;4.57;2.20;;;;;;;;;;10449798;28;20448;-84
2022/05/19 12:52:45;;;;;;;4.45;2.20;;;;;;;;;;10458710;28;20624;-83
2022/05/19 12:57:48;;;;;;;3.33;2.35;;;;;;;;;;10471105;28;20862;-84
2022/05/19 13:03:02;;;;;;;4.27;2.40;;;;;;;;;;10469479;28;20413;-83
2022/05/19 13:08:10;;;;;;;4.97;2.30;;;;;;;;;;10460298;28;20424;-81
2022/05/19 13:13:24;;;;;;;4.28;2.30;;;;;;;;;;10467310;28;20398;-83
2022/05/19 13:18:30;;;;;;;3.13;2.47;;;;;;;;;;10472449;28;20418;-83
2022/05/19 13:23:32;;;;;;;4.22;2.78;;;;;;;;;;10476009;28;20416;-83
2022/05/19 13:33:57;;;;;;;3.88;2.90;;;;;;;;;;10477963;28;20390;-83
2022/05/19 13:39:10;;;;;;;3.85;2.42;;;;;;;;;;10478584;28;20448;-83
2022/05/19 13:44:15;;;;;;;3.90;2.90;;;;;;;;;;10478107;28;20394;-84
2022/05/19 13:49:21;;;;;;;4.75;2.72;;;;;;;;;;10475440;28;21112;-82
2022/05/19 13:54:32;;;;;;;2.92;2.65;;;;;;;;;;10473569;28;20416;-84
2022/05/19 13:59:36;;;;;;;3.10;2.80;;;;;;;;;;10479937;28;20508;-84
2022/05/19 14:04:41;;;;;;;4.55;3.28;;;;;;;;;;10480581;28;20866;-84
2022/05/19 14:09:55;;;;;;;4.67;2.93;;;;;;;;;;10481224;28;20410;-85
2022/05/19 14:15:01;;;;;;;3.85;2.63;;;;;;;;;;10481064;28;20873;-84
2022/05/19 14:20:08;;;;;;;3.22;2.70;;;;;;;;;;10480014;28;20414;-84
2022/05/19 14:25:12;;;;;;;6.45;3.00;;;;;;;;;;10480382;28;20882;-84
2022/05/19 14:30:17;;;;;;;3.92;2.80;;;;;;;;;;10477550;28;20445;-82
2022/05/19 14:35:24;;;;;;;5.75;2.95;;;;;;;;;;10476405;28;20490;-82
2022/05/19 14:45:54;;;;;;;4.73;2.80;;;;;;;;;;10480519;28;20396;-83
2022/05/19 14:50:57;;;;;;;5.70;2.63;;;;;;;;;;10479722;28;20398;-85
2022/05/19 14:56:04;;;;;;;4.10;3.20;;;;;;;;;;10479440;28;20421;-83
2022/05/19 15:01:08;;;;;;;4.55;2.90;;;;;;;;;;10471826;28;20804;-83
2022/05/19 15:06:09;;;;;;;3.57;2.77;;;;;;;;;;10476741;28;20406;-83
2022/05/19 15:11:11;;;;;;;2.75;2.55;;;;;;;;;;10472388;28;20492;-84
2022/05/19 15:16:17;;;;;;;3.72;2.70;;;;;;;;;;10473498;28;20480;-82
2022/05/19 15:21:20;;;;;;;5.32;2.65;;;;;;;;;;10471016;28;20702;-82
2022/05/19 15:26:22;;;;;;;3.10;2.28;;;;;;;;;;10478068;28;20424;-82
2022/05/19 15:31:25;;;;;;;3.75;2.70;;;;;;;;;;10475964;28;20408;-82
2022/05/19 15:36:27;;;;;;;3.63;2.10;;;;;;;;;;10479298;28;20820;-82
2022/05/19 15:41:29;;;;;;;4.15;2.00;;;;;;;;;;10474843;28;20425;-83
2022/05/19 15:46:32;;;;;;;4.47;1.93;;;;;;;;;;10480468;28;20402;-84
2022/05/19 15:51:35;;;;;;;3.63;2.30;;;;;;;;;;10473243;28;20407;-83
2022/05/19 15:56:37;;;;;;;2.40;1.98;;;;;;;;;;10483434;28;20492;-83
2022/05/19 16:01:40;;;;;;;3.35;2.05;;;;;;;;;;10480727;28;20418;-84
2022/05/19 16:06:42;;;;;;;5.60;2.10;;;;;;;;;;10476840;28;20404;-83
2022/05/19 16:11:44;;;;;;;4.23;1.80;;;;;;;;;;10471945;28;20422;-83
2022/05/19 16:16:47;;;;;;;4.45;2.10;;;;;;;;;;10476195;28;20432;-82
2022/05/19 16:21:49;;;;;;;3.97;2.10;;;;;;;;;;10478044;28;20422;-83
2022/05/19 16:26:51;;;;;;;4.82;2.08;;;;;;;;;;10476835;28;20418;-84
2022/05/19 16:31:54;;;;;;;5.40;2.30;;;;;;;;;;10475218;28;20415;-84
2022/05/19 16:36:59;;;;;;;5.05;2.30;;;;;;;;;;10466421;28;20453;-83
2022/05/19 16:42:01;;;;;;;5.77;2.27;;;;;;;;;;10454438;28;21225;-82
2022/05/19 16:47:05;;;;;;;4.80;2.13;;;;;;;;;;10449623;28;20406;-83
2022/05/19 16:52:09;;;;;;;2.30;1.95;;;;;;;;;;10440303;28;20431;-84
2022/05/19 17:02:31;;;;;;;3.73;2.13;;;;;;;;;;10452618;28;20414;-83
2022/05/19 17:07:34;;;;;;;5.93;2.10;;;;;;;;;;10459516;28;20444;-82
2022/05/19 17:12:36;;;;;;;4.30;2.10;;;;;;;;;;10457300;28;20528;-80
2022/05/19 17:17:39;;;;;;;12.48;11.18;;;;;;;;;;10457683;28;20411;-81
2022/05/19 17:22:41;;;;;;;9.90;7.87;;;;;;;;;;10479581;28;20423;-83
2022/05/19 17:27:44;;;;;;;4.47;2.20;;;;;;;;;;10479980;28;20417;-84
2022/05/19 17:32:47;;;;;;;3.23;1.87;;;;;;;;;;10473880;28;20815;-82
2022/05/19 17:37:49;;;;;;;4.60;2.00;;;;;;;;;;10479830;28;20520;-85
2022/05/19 17:42:51;;;;;;;6.83;2.13;;;;;;;;;;10471777;28;20509;-80
2022/05/19 17:47:55;;;;;;;6.10;3.50;;;;;;;;;;10473984;28;20409;-80
2022/05/19 17:52:57;;;;;;;6.25;3.28;;;;;;;;;;10469638;28;20888;-80
2022/05/19 17:57:59;;;;;;;10.25;6.70;;;;;;;;;;10464927;28;20399;-79
2022/05/19 18:03:02;;;;;;;6.05;3.78;;;;;;;;;;10463163;28;20430;-80
2022/05/19 18:08:05;;;;;;;10.67;5.60;;;;;;;;;;10470185;28;20410;-80
2022/05/19 18:13:07;;;;;;;3.92;1.95;;;;;;;;;;10464565;28;20394;-82
2022/05/19 18:18:23;;;;;;;3.80;2.17;;;;;;;;;;10452512;28;20469;-79
2022/05/19 18:23:28;;;;;;;2.67;1.80;;;;;;;;;;10462198;28;21012;-79
2022/05/19 18:28:31;;;;;;;3.33;2.03;;;;;;;;;;10450406;28;20424;-81
2022/05/19 18:33:35;;;;;;;3.90;2.03;;;;;;;;;;10452542;28;20411;-80
2022/05/19 18:38:37;;;;;;;4.30;2.00;;;;;;;;;;10462427;28;20404;-79
2022/05/19 18:49:00;;;;;;;4.38;2.13;;;;;;;;;;10452900;28;20497;-80
2022/05/19 18:54:02;;;;;;;4.93;2.20;;;;;;;;;;10461075;28;20424;-80
2022/05/19 18:59:05;;;;;;;4.43;2.30;;;;;;;;;;10451373;28;20412;-80
2022/05/19 19:04:08;;;;;;;5.57;1.98;;;;;;;;;;10454534;28;20406;-82
2022/05/19 19:09:10;;;;;;;3.70;2.20;;;;;;;;;;10448169;28;20425;-82
2022/05/19 19:14:12;;;;;;;4.27;2.07;;;;;;;;;;10441381;28;20426;-80
2022/05/19 19:19:16;;;;;;;2.70;1.90;;;;;;;;;;10444332;28;20439;-81
2022/05/19 19:24:18;;;;;;;5.30;2.10;;;;;;;;;;10458926;28;20406;-81
2022/05/19 19:29:20;;;;;;;4.60;2.03;;;;;;;;;;10449488;28;20492;-80
2022/05/19 19:34:23;;;;;;;4.28;2.03;;;;;;;;;;10445409;28;20443;-82
2022/05/19 19:39:25;;;;;;;2.83;2.00;;;;;;;;;;10447622;28;20422;-81
2022/05/19 19:44:27;;;;;;;3.43;2.33;;;;;;;;;;10443369;28;20426;-82
2022/05/19 19:49:31;;;;;;;5.13;2.35;;;;;;;;;;10440180;28;20772;-81
2022/05/19 19:54:35;;;;;;;5.63;2.67;;;;;;;;;;10440996;28;20426;-81
2022/05/19 19:59:39;;;;;;;5.38;3.35;;;;;;;;;;10444766;28;20425;-81
2022/05/19 20:04:42;;;;;;;6.00;2.78;;;;;;;;;;10441926;28;20419;-81
2022/05/19 20:09:45;;;;;;;6.82;2.85;;;;;;;;;;10446121;28;20423;-81
2022/05/19 20:14:50;;;;;;;5.15;3.03;;;;;;;;;;10449350;28;20403;-80
2022/05/19 20:19:54;;;;;;;6.30;3.15;;;;;;;;;;10439454;28;20414;-79
2022/05/19 20:24:55;;;;;;;7.27;5.00;;;;;;;;;;10445246;28;20415;-79
2022/05/19 20:29:57;;;;;;;5.20;3.40;;;;;;;;;;10452587;28;20433;-80
2022/05/19 20:35:01;;;;;;;4.70;3.10;;;;;;;;;;10451607;28;20434;-79
2022/05/19 20:40:04;;;;;;;6.00;2.80;;;;;;;;;;10448628;28;20920;-79
2022/05/19 20:45:07;;;;;;;5.68;2.85;;;;;;;;;;10449695;28;20421;-79
2022/05/19 20:50:12;;;;;;;4.50;2.70;;;;;;;;;;10450256;28;20772;-79
2022/05/19 20:55:15;;;;;;;3.67;2.30;;;;;;;;;;10451321;28;20424;-80
2022/05/19 21:00:19;;;;;;;4.90;2.65;;;;;;;;;;10447743;28;20933;-79
2022/05/19 21:05:26;;;;;;;5.57;3.28;;;;;;;;;;10452990;28;20402;-80
2022/05/19 21:10:28;;;;;;;7.23;3.67;;;;;;;;;;10456680;28;20405;-81
2022/05/19 21:15:31;;;;;;;6.13;3.80;;;;;;;;;;10456557;28;20411;-81
2022/05/19 21:20:34;;;;;;;5.75;3.90;;;;;;;;;;10451706;28;20824;-80
2022/05/19 21:25:55;;;;;;;5.82;3.90;;;;;;;;;;10450973;28;20428;-79
2022/05/19 21:30:57;;;;;;;7.33;3.93;;;;;;;;;;10445060;28;20420;-79
2022/05/19 21:36:01;;;;;;;5.47;3.67;;;;;;;;;;10438323;28;20469;-80
2022/05/19 21:41:03;;;;;;;6.38;3.75;;;;;;;;;;10445113;28;20457;-80
2022/05/19 21:46:06;;;;;;;4.53;3.63;;;;;;;;;;10468899;28;20508;-81
2022/05/19 21:56:28;;;;;;;5.28;3.50;;;;;;;;;;10456678;28;20443;-80
2022/05/19 22:01:30;;;;;;;5.80;3.47;;;;;;;;;;10459673;28;21300;-80
2022/05/19 22:11:53;;;;;;;5.43;2.92;;;;;;;;;;10459778;28;20508;-80
2022/05/19 22:16:55;;;;;;;4.25;2.78;;;;;;;;;;10428767;28;20907;-81
2022/05/19 22:21:58;;;;;;;4.40;2.40;;;;;;;;;;10419993;28;20454;-80
2022/05/19 22:27:02;;;;;;;3.78;2.60;;;;;;;;;;10425134;28;20413;-81
2022/05/19 22:32:06;;;;;;;5.37;2.70;;;;;;;;;;10421793;28;20420;-81
2022/05/19 22:37:10;;;;;;;4.45;2.63;;;;;;;;;;10423761;28;20421;-80
2022/05/19 22:42:12;;;;;;;5.20;2.72;;;;;;;;;;10427979;28;20429;-81
2022/05/19 22:52:35;;;;;;;4.28;2.90;;;;;;;;;;10423360;28;20440;-80
2022/05/19 22:57:37;;;;;;;5.30;2.92;;;;;;;;;;10427599;28;20427;-81
2022/05/19 23:02:39;;;;;;;5.07;2.97;;;;;;;;;;10421420;28;20838;-79
2022/05/19 23:07:42;;;;;;;5.78;3.13;;;;;;;;;;10421823;28;20772;-80
2022/05/19 23:12:44;;;;;;;5.03;3.30;;;;;;;;;;10425613;28;20418;-80
2022/05/19 23:17:46;;;;;;;5.47;3.45;;;;;;;;;;10421073;28;20405;-81
2022/05/19 23:22:50;;;;;;;6.40;3.28;;;;;;;;;;10425913;28;20765;-80
2022/05/19 23:27:52;;;;;;;5.60;3.37;;;;;;;;;;10407899;28;20397;-81
2022/05/19 23:38:14;;;;;;;5.97;3.97;;;;;;;;;;10422086;28;20404;-81
2022/05/19 23:43:16;;;;;;;5.95;4.50;;;;;;;;;;10418921;28;20443;-80
2022/05/19 23:48:20;;;;;;;7.80;5.57;;;;;;;;;;10417088;28;20685;-80
2022/05/19 23:53:24;;;;;;;8.85;6.13;;;;;;;;;;10425249;28;20495;-81
2022/05/19 23:58:27;;;;;;;7.13;6.43;;;;;;;;;;10419146;28;20494;-81
